Time,TemperatureF,DewpointF,PressureIn,WindDirection,WindDirectionDegrees,WindSpeedMPH,WindSpeedGustMPH,Humidity,HourlyPrecipIn,Conditions,Clouds,dailyrainin,SoftwareType,DateUTC
2013-08-26 00:01:00,65.2,60.0,29.92,West,270,0.0,1.0,84,0.00,,,0.00,Rainwise IP-100,2013-08-26 07:01:00,
2013-08-26 00:06:00,65.2,60.0,29.92,West,270,0.0,1.0,84,0.00,,,0.00,Rainwise IP-100,2013-08-26 07:06:00,
2013-08-26 00:11:00,65.2,60.0,29.92,West,270,0.0,0.0,84,0.00,,,0.00,Rainwise IP-100,2013-08-26 07:11:00,
2013-08-26 00:16:00,65.1,60.0,29.92,West,270,0.0,0.0,84,0.00,,,0.00,Rainwise IP-100,2013-08-26 07:16:00,
2013-08-26 00:21:00,65.0,60.0,29.92,West,270,1.2,1.2,85,0.00,,,0.00,Rainwise IP-100,2013-08-26 07:21:00,
2013-08-26 00:26:00,64.9,60.0,29.92,West,270,0.0,1.0,85,0.00,,,0.00,Rainwise IP-100,2013-08-26 07:26:00,
2013-08-26 00:31:00,64.9,60.0,29.92,West,270,0.0,0.0,85,0.00,,,0.00,Rainwise IP-100,2013-08-26 07:31:00,
2013-08-26 00:36:00,64.8,60.0,29.92,West,270,0.0,0.0,85,0.00,,,0.00,Rainwise IP-100,2013-08-26 07:36:00,
2013-08-26 00:41:00,64.7,60.0,29.92,West,270,0.0,1.0,85,0.00,,,0.00,Rainwise IP-100,2013-08-26 07:41:00,
2013-08-26 00:46:00,64.6,59.0,29.92,West,270,1.2,1.2,84,0.00,,,0.00,Rainwise IP-100,2013-08-26 07:46:00,
2013-08-26 00:51:00,64.6,59.0,29.92,West,270,0.0,1.0,84,0.00,,,0.00,Rainwise IP-100,2013-08-26 07:51:00,
2013-08-26 00:56:00,64.7,59.0,29.92,West,270,0.0,2.0,84,0.00,,,0.00,Rainwise IP-100,2013-08-26 07:56:00,
2013-08-26 01:01:00,64.8,59.0,29.92,West,270,1.6,1.6,83,0.00,,,0.00,Rainwise IP-100,2013-08-26 08:01:00,
2013-08-26 01:06:00,65.1,59.0,29.91,West,270,1.6,2.0,83,0.00,,,0.00,Rainwise IP-100,2013-08-26 08:06:00,
2013-08-26 01:11:00,65.3,59.0,29.92,West,270,0.0,1.0,82,0.00,,,0.00,Rainwise IP-100,2013-08-26 08:11:00,
2013-08-26 01:16:00,65.4,59.0,29.92,West,270,1.6,2.0,81,0.00,,,0.00,Rainwise IP-100,2013-08-26 08:16:00,
2013-08-26 01:21:00,65.5,59.0,29.92,West,270,0.0,1.0,81,0.00,,,0.00,Rainwise IP-100,2013-08-26 08:21:00,
2013-08-26 01:26:00,65.7,59.0,29.91,West,270,1.2,2.0,81,0.00,,,0.00,Rainwise IP-100,2013-08-26 08:26:00,
2013-08-26 01:31:00,65.8,59.0,29.91,West,270,0.0,1.0,80,0.00,,,0.00,Rainwise IP-100,2013-08-26 08:31:00,
2013-08-26 01:36:00,65.8,59.0,29.91,West,270,0.0,1.0,80,0.00,,,0.00,Rainwise IP-100,2013-08-26 08:36:00,
2013-08-26 01:41:00,65.8,59.0,29.91,West,270,0.0,0.0,80,0.00,,,0.00,Rainwise IP-100,2013-08-26 08:41:00,
2013-08-26 01:46:00,65.6,59.0,29.91,West,270,0.0,0.0,81,0.00,,,0.00,Rainwise IP-100,2013-08-26 08:46:00,
2013-08-26 01:51:00,65.4,60.0,29.91,West,270,0.0,0.0,82,0.00,,,0.00,Rainwise IP-100,2013-08-26 08:51:00,
2013-08-26 01:56:00,65.2,59.0,29.91,West,270,0.0,0.0,82,0.00,,,0.00,Rainwise IP-100,2013-08-26 08:56:00,
2013-08-26 02:01:00,64.9,59.0,29.92,West,270,0.0,0.0,83,0.00,,,0.00,Rainwise IP-100,2013-08-26 09:01:00,
2013-08-26 02:06:00,64.6,59.0,29.91,West,270,0.0,1.0,83,0.00,,,0.00,Rainwise IP-100,2013-08-26 09:06:00,
2013-08-26 02:11:00,64.3,59.0,29.91,West,270,0.0,1.0,84,0.00,,,0.00,Rainwise IP-100,2013-08-26 09:11:00,
2013-08-26 02:16:00,64.2,59.0,29.91,West,270,0.0,1.0,84,0.00,,,0.00,Rainwise IP-100,2013-08-26 09:16:00,
2013-08-26 02:21:00,64.0,59.0,29.91,West,270,0.0,0.0,85,0.00,,,0.00,Rainwise IP-100,2013-08-26 09:21:00,
2013-08-26 02:26:00,63.8,59.0,29.91,West,270,1.4,1.4,85,0.00,,,0.00,Rainwise IP-100,2013-08-26 09:26:00,
2013-08-26 02:31:00,63.8,59.0,29.91,West,270,0.0,1.0,85,0.00,,,0.00,Rainwise IP-100,2013-08-26 09:31:00,
2013-08-26 02:36:00,64.0,59.0,29.91,West,270,0.0,0.0,85,0.00,,,0.00,Rainwise IP-100,2013-08-26 09:36:00,
2013-08-26 02:41:00,64.0,59.0,29.91,West,270,0.0,0.0,85,0.00,,,0.00,Rainwise IP-100,2013-08-26 09:41:00,
2013-08-26 02:46:00,63.9,59.0,29.91,West,270,1.6,1.6,85,0.00,,,0.00,Rainwise IP-100,2013-08-26 09:46:00,
2013-08-26 02:51:00,63.9,59.0,29.91,West,270,0.0,1.0,84,0.00,,,0.00,Rainwise IP-100,2013-08-26 09:51:00,
2013-08-26 02:56:00,63.9,59.0,29.91,West,270,0.0,0.0,84,0.00,,,0.00,Rainwise IP-100,2013-08-26 09:56:00,
2013-08-26 03:01:00,63.9,59.0,29.91,West,270,0.0,1.0,84,0.00,,,0.00,Rainwise IP-100,2013-08-26 10:01:00,
2013-08-26 03:06:00,63.9,59.0,29.91,West,270,0.0,0.0,84,0.00,,,0.00,Rainwise IP-100,2013-08-26 10:06:00,
2013-08-26 03:11:00,64.1,59.0,29.91,West,270,0.0,1.0,84,0.00,,,0.00,Rainwise IP-100,2013-08-26 10:11:00,
2013-08-26 03:16:00,64.2,59.0,29.91,West,270,0.0,1.0,84,0.00,,,0.00,Rainwise IP-100,2013-08-26 10:16:00,
2013-08-26 03:21:00,64.5,59.0,29.91,West,270,0.0,0.0,83,0.00,,,0.00,Rainwise IP-100,2013-08-26 10:21:00,
2013-08-26 03:26:00,64.7,59.0,29.90,West,270,1.2,1.2,83,0.00,,,0.00,Rainwise IP-100,2013-08-26 10:26:00,
2013-08-26 03:31:00,64.6,59.0,29.91,West,270,0.0,1.0,82,0.00,,,0.00,Rainwise IP-100,2013-08-26 10:31:00,
2013-08-26 03:36:00,64.5,59.0,29.91,West,270,0.0,0.0,82,0.00,,,0.00,Rainwise IP-100,2013-08-26 10:36:00,
2013-08-26 03:41:00,64.4,59.0,29.91,West,270,0.0,0.0,83,0.00,,,0.00,Rainwise IP-100,2013-08-26 10:41:00,
2013-08-26 03:46:00,64.2,59.0,29.91,West,270,1.2,1.2,83,0.00,,,0.00,Rainwise IP-100,2013-08-26 10:46:00,
2013-08-26 03:51:00,64.0,59.0,29.91,West,270,0.0,1.0,84,0.00,,,0.00,Rainwise IP-100,2013-08-26 10:51:00,
2013-08-26 03:56:00,63.9,59.0,29.91,West,270,0.0,1.0,84,0.00,,,0.00,Rainwise IP-100,2013-08-26 10:56:00,
2013-08-26 04:01:00,63.7,59.0,29.91,West,270,0.0,0.0,84,0.00,,,0.00,Rainwise IP-100,2013-08-26 11:01:00,
2013-08-26 04:06:00,63.7,59.0,29.91,West,270,0.0,1.0,84,0.00,,,0.00,Rainwise IP-100,2013-08-26 11:06:00,
2013-08-26 04:11:00,63.6,58.0,29.91,West,270,0.0,1.0,83,0.00,,,0.00,Rainwise IP-100,2013-08-26 11:11:00,
2013-08-26 04:16:00,63.6,58.0,29.91,West,270,0.0,1.0,83,0.00,,,0.00,Rainwise IP-100,2013-08-26 11:16:00,
2013-08-26 04:21:00,63.7,58.0,29.91,West,270,0.0,1.0,83,0.00,,,0.00,Rainwise IP-100,2013-08-26 11:21:00,
2013-08-26 04:26:00,64.0,59.0,29.91,West,270,0.0,0.0,83,0.00,,,0.00,Rainwise IP-100,2013-08-26 11:26:00,
2013-08-26 04:31:00,64.1,59.0,29.91,West,270,0.0,0.0,83,0.00,,,0.00,Rainwise IP-100,2013-08-26 11:31:00,
2013-08-26 04:36:00,64.1,59.0,29.91,West,270,0.0,0.0,83,0.00,,,0.00,Rainwise IP-100,2013-08-26 11:36:00,
2013-08-26 04:41:00,64.1,59.0,29.91,West,270,0.0,0.0,83,0.00,,,0.00,Rainwise IP-100,2013-08-26 11:41:00,
2013-08-26 04:46:00,64.0,59.0,29.90,West,270,0.0,0.0,83,0.00,,,0.00,Rainwise IP-100,2013-08-26 11:46:00,
2013-08-26 04:51:00,64.0,59.0,29.90,West,270,0.0,0.0,84,0.00,,,0.00,Rainwise IP-100,2013-08-26 11:51:00,
2013-08-26 04:56:00,64.0,59.0,29.90,West,270,0.0,0.0,84,0.00,,,0.00,Rainwise IP-100,2013-08-26 11:56:00,
2013-08-26 05:01:00,63.9,59.0,29.90,West,270,0.0,1.0,84,0.00,,,0.00,Rainwise IP-100,2013-08-26 12:01:00,
2013-08-26 05:06:00,63.8,59.0,29.90,West,270,0.0,1.0,84,0.00,,,0.00,Rainwise IP-100,2013-08-26 12:06:00,
2013-08-26 05:11:00,63.9,59.0,29.91,West,270,0.0,0.0,84,0.00,,,0.00,Rainwise IP-100,2013-08-26 12:11:00,
2013-08-26 05:16:00,63.9,59.0,29.91,West,270,1.2,1.2,84,0.00,,,0.00,Rainwise IP-100,2013-08-26 12:16:00,
2013-08-26 05:21:00,64.0,59.0,29.91,West,270,0.0,1.0,84,0.00,,,0.00,Rainwise IP-100,2013-08-26 12:21:00,
2013-08-26 05:26:00,64.1,59.0,29.91,West,270,0.0,0.0,83,0.00,,,0.00,Rainwise IP-100,2013-08-26 12:26:00,
2013-08-26 05:31:00,64.2,59.0,29.91,West,270,0.0,1.0,83,0.00,,,0.00,Rainwise IP-100,2013-08-26 12:31:00,
2013-08-26 05:36:00,64.2,59.0,29.91,West,270,0.0,0.0,83,0.00,,,0.00,Rainwise IP-100,2013-08-26 12:36:00,
2013-08-26 05:41:00,64.1,59.0,29.91,West,270,0.0,0.0,84,0.00,,,0.00,Rainwise IP-100,2013-08-26 12:41:00,
2013-08-26 05:46:00,64.0,59.0,29.91,West,270,0.0,0.0,84,0.00,,,0.00,Rainwise IP-100,2013-08-26 12:46:00,
2013-08-26 05:51:00,64.0,59.0,29.91,West,270,0.0,1.0,84,0.00,,,0.00,Rainwise IP-100,2013-08-26 12:51:00,
2013-08-26 05:56:00,64.1,59.0,29.91,West,270,0.0,0.0,84,0.00,,,0.00,Rainwise IP-100,2013-08-26 12:56:00,
2013-08-26 06:01:00,64.1,59.0,29.92,West,270,0.0,1.0,85,0.00,,,0.00,Rainwise IP-100,2013-08-26 13:01:00,
2013-08-26 06:06:00,64.1,59.0,29.91,West,270,0.0,0.0,85,0.00,,,0.00,Rainwise IP-100,2013-08-26 13:06:00,
2013-08-26 06:11:00,64.0,59.0,29.91,West,270,0.0,0.0,85,0.00,,,0.00,Rainwise IP-100,2013-08-26 13:11:00,
2013-08-26 06:16:00,63.9,60.0,29.91,West,270,0.0,0.0,86,0.00,,,0.00,Rainwise IP-100,2013-08-26 13:16:00,
2013-08-26 06:21:00,63.9,60.0,29.91,West,270,0.0,0.0,86,0.00,,,0.00,Rainwise IP-100,2013-08-26 13:21:00,
2013-08-26 06:26:00,63.9,60.0,29.91,West,270,0.0,0.0,86,0.00,,,0.00,Rainwise IP-100,2013-08-26 13:26:00,
2013-08-26 06:31:00,63.9,60.0,29.91,West,270,0.0,0.0,87,0.00,,,0.00,Rainwise IP-100,2013-08-26 13:31:00,
2013-08-26 06:36:00,64.0,60.0,29.92,West,270,0.0,0.0,87,0.00,,,0.00,Rainwise IP-100,2013-08-26 13:36:00,
2013-08-26 06:41:00,64.2,60.0,29.92,West,270,0.0,0.0,86,0.00,,,0.00,Rainwise IP-100,2013-08-26 13:41:00,
2013-08-26 06:46:00,64.3,60.0,29.92,West,270,0.0,0.0,86,0.00,,,0.00,Rainwise IP-100,2013-08-26 13:46:00,
2013-08-26 06:51:00,64.4,60.0,29.92,West,270,0.0,0.0,86,0.00,,,0.00,Rainwise IP-100,2013-08-26 13:51:00,
2013-08-26 06:56:00,64.4,60.0,29.92,West,270,0.0,0.0,86,0.00,,,0.00,Rainwise IP-100,2013-08-26 13:56:00,
2013-08-26 07:01:00,64.5,60.0,29.92,West,270,0.0,1.0,85,0.00,,,0.00,Rainwise IP-100,2013-08-26 14:01:00,
2013-08-26 07:06:00,64.6,60.0,29.92,West,270,0.0,0.0,85,0.00,,,0.00,Rainwise IP-100,2013-08-26 14:06:00,
2013-08-26 07:11:00,64.8,60.0,29.92,West,270,0.0,0.0,86,0.00,,,0.00,Rainwise IP-100,2013-08-26 14:11:00,
2013-08-26 07:16:00,65.0,60.0,29.92,West,270,0.0,1.0,86,0.00,,,0.00,Rainwise IP-100,2013-08-26 14:16:00,
2013-08-26 07:21:00,65.2,60.0,29.93,West,270,0.0,1.0,86,0.00,,,0.00,Rainwise IP-100,2013-08-26 14:21:00,
2013-08-26 07:26:00,65.3,60.0,29.92,West,270,0.0,1.0,86,0.00,,,0.00,Rainwise IP-100,2013-08-26 14:26:00,
2013-08-26 07:31:00,65.6,61.0,29.93,West,270,0.0,0.0,85,0.00,,,0.00,Rainwise IP-100,2013-08-26 14:31:00,
2013-08-26 07:36:00,65.9,61.0,29.93,West,270,0.0,1.0,85,0.00,,,0.00,Rainwise IP-100,2013-08-26 14:36:00,
2013-08-26 07:41:00,66.1,61.0,29.93,West,270,0.0,1.0,85,0.00,,,0.00,Rainwise IP-100,2013-08-26 14:41:00,
2013-08-26 07:46:00,66.2,61.0,29.94,West,270,0.0,0.0,85,0.00,,,0.00,Rainwise IP-100,2013-08-26 14:46:00,
2013-08-26 07:51:00,66.4,61.0,29.94,SSW,202,1.6,3.0,84,0.00,,,0.00,Rainwise IP-100,2013-08-26 14:51:00,
2013-08-26 07:56:00,66.9,62.0,29.94,SSW,202,0.0,2.0,84,0.00,,,0.00,Rainwise IP-100,2013-08-26 14:56:00,
2013-08-26 08:01:00,67.2,62.0,29.93,SSW,202,0.0,0.0,84,0.00,,,0.00,Rainwise IP-100,2013-08-26 15:01:00,
2013-08-26 08:06:00,67.4,62.0,29.94,SSW,202,0.0,0.0,84,0.00,,,0.00,Rainwise IP-100,2013-08-26 15:06:00,
2013-08-26 08:11:00,67.7,62.0,29.94,SSW,202,0.0,0.0,82,0.00,,,0.00,Rainwise IP-100,2013-08-26 15:11:00,
2013-08-26 08:16:00,67.9,62.0,29.94,SSW,202,0.0,0.0,82,0.00,,,0.00,Rainwise IP-100,2013-08-26 15:16:00,
2013-08-26 08:21:00,67.9,62.0,29.94,SSW,202,0.0,0.0,82,0.00,,,0.00,Rainwise IP-100,2013-08-26 15:21:00,
2013-08-26 08:26:00,68.0,62.0,29.94,SSW,202,0.0,0.0,82,0.00,,,0.00,Rainwise IP-100,2013-08-26 15:26:00,
2013-08-26 08:31:00,68.0,62.0,29.94,SSW,202,0.0,1.0,82,0.00,,,0.00,Rainwise IP-100,2013-08-26 15:31:00,
2013-08-26 08:36:00,68.1,62.0,29.94,South,180,0.0,2.0,83,0.00,,,0.00,Rainwise IP-100,2013-08-26 15:36:00,
2013-08-26 08:41:00,68.3,62.0,29.94,South,180,0.0,0.0,83,0.00,,,0.00,Rainwise IP-100,2013-08-26 15:41:00,
2013-08-26 08:46:00,68.7,62.0,29.93,South,180,0.0,0.0,82,0.00,,,0.00,Rainwise IP-100,2013-08-26 15:46:00,
2013-08-26 08:51:00,69.0,63.0,29.93,South,180,1.2,1.2,81,0.00,,,0.00,Rainwise IP-100,2013-08-26 15:51:00,
2013-08-26 08:56:00,69.3,63.0,29.94,SSE,157,1.2,2.0,80,0.00,,,0.00,Rainwise IP-100,2013-08-26 15:56:00,
2013-08-26 09:01:00,69.6,63.0,29.94,SSE,157,0.0,1.0,80,0.00,,,0.00,Rainwise IP-100,2013-08-26 16:01:00,
2013-08-26 09:06:00,70.4,63.0,29.94,SSE,157,0.0,1.0,79,0.00,,,0.00,Rainwise IP-100,2013-08-26 16:06:00,
2013-08-26 09:11:00,71.4,64.0,29.93,SSE,157,0.0,2.0,78,0.00,,,0.00,Rainwise IP-100,2013-08-26 16:11:00,
2013-08-26 09:16:00,72.6,65.0,29.93,South,180,2.8,2.8,76,0.00,,,0.00,Rainwise IP-100,2013-08-26 16:16:00,
2013-08-26 09:21:00,74.0,65.0,29.93,SSE,157,0.0,2.0,73,0.00,,,0.00,Rainwise IP-100,2013-08-26 16:21:00,
2013-08-26 09:26:00,75.4,65.0,29.93,SSW,202,1.9,3.0,70,0.00,,,0.00,Rainwise IP-100,2013-08-26 16:26:00,
2013-08-26 09:31:00,76.5,65.0,29.93,SSE,157,1.2,3.0,68,0.00,,,0.00,Rainwise IP-100,2013-08-26 16:31:00,
2013-08-26 09:36:00,77.2,65.0,29.93,SSE,157,1.2,2.0,65,0.00,,,0.00,Rainwise IP-100,2013-08-26 16:36:00,
2013-08-26 09:41:00,77.8,64.0,29.93,SSE,157,0.0,1.0,64,0.00,,,0.00,Rainwise IP-100,2013-08-26 16:41:00,
2013-08-26 09:46:00,78.0,65.0,29.92,SSE,157,0.0,1.0,64,0.00,,,0.00,Rainwise IP-100,2013-08-26 16:46:00,
2013-08-26 09:51:00,77.7,64.0,29.93,SSE,157,0.0,2.0,64,0.00,,,0.00,Rainwise IP-100,2013-08-26 16:51:00,
2013-08-26 09:56:00,77.4,64.0,29.93,South,180,1.4,1.4,64,0.00,,,0.00,Rainwise IP-100,2013-08-26 16:56:00,
2013-08-26 10:01:00,77.2,64.0,29.93,South,180,0.0,2.0,64,0.00,,,0.00,Rainwise IP-100,2013-08-26 17:01:00,
2013-08-26 10:06:00,77.2,64.0,29.92,SSE,157,1.4,1.4,64,0.00,,,0.00,Rainwise IP-100,2013-08-26 17:06:00,
2013-08-26 10:11:00,77.6,65.0,29.93,South,180,2.1,2.1,65,0.00,,,0.00,Rainwise IP-100,2013-08-26 17:11:00,
2013-08-26 10:16:00,78.3,66.0,29.92,ESE,112,1.4,2.0,65,0.00,,,0.00,Rainwise IP-100,2013-08-26 17:16:00,
2013-08-26 10:21:00,78.8,65.0,29.92,ESE,112,0.0,2.0,64,0.00,,,0.00,Rainwise IP-100,2013-08-26 17:21:00,
2013-08-26 10:26:00,79.1,65.0,29.92,ESE,112,2.1,2.1,63,0.00,,,0.00,Rainwise IP-100,2013-08-26 17:26:00,
2013-08-26 10:31:00,78.9,65.0,29.93,SE,135,0.0,2.0,63,0.00,,,0.00,Rainwise IP-100,2013-08-26 17:31:00,
2013-08-26 10:36:00,79.1,66.0,29.92,SE,135,1.9,1.9,64,0.00,,,0.00,Rainwise IP-100,2013-08-26 17:36:00,
2013-08-26 10:41:00,79.3,66.0,29.92,SSE,157,0.0,3.0,63,0.00,,,0.00,Rainwise IP-100,2013-08-26 17:41:00,
2013-08-26 10:46:00,79.0,65.0,29.92,SSW,202,1.9,5.0,63,0.00,,,0.00,Rainwise IP-100,2013-08-26 17:46:00,
2013-08-26 10:51:00,78.8,65.0,29.92,SSW,202,3.3,3.3,63,0.00,,,0.00,Rainwise IP-100,2013-08-26 17:51:00,
2013-08-26 10:56:00,78.6,65.0,29.92,SSW,202,2.3,5.0,63,0.00,,,0.00,Rainwise IP-100,2013-08-26 17:56:00,
2013-08-26 11:01:00,78.0,64.0,29.92,SSW,202,3.5,4.0,62,0.00,,,0.00,Rainwise IP-100,2013-08-26 18:01:00,
2013-08-26 11:06:00,77.9,64.0,29.92,SSW,202,1.2,4.0,63,0.00,,,0.00,Rainwise IP-100,2013-08-26 18:06:00,
2013-08-26 11:11:00,78.1,64.0,29.93,SSE,157,4.2,5.0,62,0.00,,,0.00,Rainwise IP-100,2013-08-26 18:11:00,
2013-08-26 11:16:00,77.4,63.0,29.92,SSW,202,3.0,7.0,61,0.00,,,0.00,Rainwise IP-100,2013-08-26 18:16:00,
2013-08-26 11:21:00,77.0,62.0,29.92,SSW,202,4.4,7.0,60,0.00,,,0.00,Rainwise IP-100,2013-08-26 18:21:00,
2013-08-26 11:26:00,77.0,62.0,29.92,SSW,202,5.4,7.0,60,0.00,,,0.00,Rainwise IP-100,2013-08-26 18:26:00,
2013-08-26 11:31:00,76.4,61.0,29.92,SSW,202,5.6,6.0,60,0.00,,,0.00,Rainwise IP-100,2013-08-26 18:31:00,
2013-08-26 11:36:00,76.4,62.0,29.92,SSW,202,3.3,5.0,61,0.00,,,0.00,Rainwise IP-100,2013-08-26 18:36:00,
2013-08-26 11:41:00,77.0,62.0,29.92,South,180,1.2,6.0,61,0.00,,,0.00,Rainwise IP-100,2013-08-26 18:41:00,
2013-08-26 11:46:00,77.5,64.0,29.91,SSW,202,4.9,6.0,62,0.00,,,0.00,Rainwise IP-100,2013-08-26 18:46:00,
2013-08-26 11:51:00,78.1,63.0,29.91,SSW,202,4.9,5.0,61,0.00,,,0.00,Rainwise IP-100,2013-08-26 18:51:00,
2013-08-26 11:56:00,78.6,63.0,29.91,SSW,202,4.4,6.0,59,0.00,,,0.00,Rainwise IP-100,2013-08-26 18:56:00,
2013-08-26 12:01:00,79.1,62.0,29.91,SSW,202,1.6,4.0,57,0.00,,,0.00,Rainwise IP-100,2013-08-26 19:01:00,
2013-08-26 12:06:00,79.6,61.0,29.91,SSW,202,1.6,5.0,54,0.00,,,0.00,Rainwise IP-100,2013-08-26 19:06:00,
2013-08-26 12:11:00,79.9,61.0,29.91,SSW,202,2.3,5.0,53,0.00,,,0.00,Rainwise IP-100,2013-08-26 19:11:00,
2013-08-26 12:16:00,80.9,62.0,29.90,SSE,157,0.0,4.0,53,0.00,,,0.00,Rainwise IP-100,2013-08-26 19:16:00,
2013-08-26 12:21:00,82.2,62.0,29.90,WNW,292,0.0,3.0,50,0.00,,,0.00,Rainwise IP-100,2013-08-26 19:21:00,
2013-08-26 12:26:00,83.0,61.0,29.90,SSW,202,3.0,4.0,47,0.00,,,0.00,Rainwise IP-100,2013-08-26 19:26:00,
2013-08-26 12:31:00,83.2,59.0,29.89,SSW,202,3.7,4.0,44,0.00,,,0.00,Rainwise IP-100,2013-08-26 19:31:00,
2013-08-26 12:36:00,83.4,59.0,29.90,SSW,202,2.3,5.0,44,0.00,,,0.00,Rainwise IP-100,2013-08-26 19:36:00,
2013-08-26 12:41:00,83.9,60.0,29.90,South,180,1.4,3.0,45,0.00,,,0.00,Rainwise IP-100,2013-08-26 19:41:00,
2013-08-26 12:46:00,84.7,61.0,29.90,SW,225,2.3,3.0,45,0.00,,,0.00,Rainwise IP-100,2013-08-26 19:46:00,
2013-08-26 12:51:00,85.3,60.0,29.89,South,180,2.6,4.0,43,0.00,,,0.00,Rainwise IP-100,2013-08-26 19:51:00,
2013-08-26 12:56:00,85.1,59.0,29.89,WSW,247,4.4,5.0,41,0.00,,,0.00,Rainwise IP-100,2013-08-26 19:56:00,
2013-08-26 13:01:00,84.6,58.0,29.89,South,180,0.0,5.0,41,0.00,,,0.00,Rainwise IP-100,2013-08-26 20:01:00,
2013-08-26 13:06:00,84.3,59.0,29.89,SSW,202,2.3,4.0,42,0.00,,,0.00,Rainwise IP-100,2013-08-26 20:06:00,
2013-08-26 13:11:00,84.0,59.0,29.89,SSW,202,2.6,5.0,42,0.00,,,0.00,Rainwise IP-100,2013-08-26 20:11:00,
2013-08-26 13:16:00,83.2,60.0,29.89,WNW,292,4.0,7.0,45,0.00,,,0.00,Rainwise IP-100,2013-08-26 20:16:00,
2013-08-26 13:21:00,81.8,60.0,29.88,SSW,202,1.2,5.0,48,0.00,,,0.00,Rainwise IP-100,2013-08-26 20:21:00,
2013-08-26 13:26:00,80.9,62.0,29.88,SSW,202,3.5,4.0,52,0.00,,,0.00,Rainwise IP-100,2013-08-26 20:26:00,
2013-08-26 13:31:00,80.7,61.0,29.88,SSW,202,4.9,4.9,52,0.00,,,0.00,Rainwise IP-100,2013-08-26 20:31:00,
2013-08-26 13:36:00,80.7,60.0,29.88,SSW,202,3.0,5.0,50,0.00,,,0.00,Rainwise IP-100,2013-08-26 20:36:00,
2013-08-26 13:41:00,81.1,62.0,29.88,SSW,202,1.6,4.0,52,0.00,,,0.00,Rainwise IP-100,2013-08-26 20:41:00,
2013-08-26 13:46:00,81.4,62.0,29.88,SSW,202,3.0,4.0,53,0.00,,,0.00,Rainwise IP-100,2013-08-26 20:46:00,
2013-08-26 13:51:00,82.1,63.0,29.88,SSW,202,1.6,4.0,53,0.00,,,0.00,Rainwise IP-100,2013-08-26 20:51:00,
2013-08-26 13:56:00,83.6,64.0,29.88,SSW,202,4.2,5.0,52,0.00,,,0.00,Rainwise IP-100,2013-08-26 20:56:00,
2013-08-26 14:01:00,85.1,65.0,29.87,SSW,202,2.3,4.0,52,0.00,,,0.00,Rainwise IP-100,2013-08-26 21:01:00,
2013-08-26 14:06:00,86.3,65.0,29.87,SSW,202,1.4,4.0,50,0.00,,,0.00,Rainwise IP-100,2013-08-26 21:06:00,
2013-08-26 14:11:00,87.4,65.0,29.86,SSW,202,2.6,4.0,48,0.00,,,0.00,Rainwise IP-100,2013-08-26 21:11:00,
2013-08-26 14:16:00,87.9,64.0,29.86,SSW,202,0.0,6.0,45,0.00,,,0.00,Rainwise IP-100,2013-08-26 21:16:00,
2013-08-26 14:21:00,88.1,63.0,29.86,SSW,202,3.3,5.0,43,0.00,,,0.00,Rainwise IP-100,2013-08-26 21:21:00,
2013-08-26 14:26:00,88.2,63.0,29.86,South,180,4.2,5.0,43,0.00,,,0.00,Rainwise IP-100,2013-08-26 21:26:00,
2013-08-26 14:31:00,87.7,62.0,29.86,SSW,202,5.1,5.1,43,0.00,,,0.00,Rainwise IP-100,2013-08-26 21:31:00,
2013-08-26 14:36:00,87.2,62.0,29.86,SSE,157,0.0,6.0,44,0.00,,,0.00,Rainwise IP-100,2013-08-26 21:36:00,
2013-08-26 14:41:00,86.9,63.0,29.86,SSW,202,2.8,7.0,45,0.00,,,0.00,Rainwise IP-100,2013-08-26 21:41:00,
2013-08-26 14:46:00,86.6,63.0,29.86,SSW,202,1.9,5.0,46,0.00,,,0.00,Rainwise IP-100,2013-08-26 21:46:00,
2013-08-26 14:51:00,85.7,62.0,29.85,SSW,202,4.0,4.0,46,0.00,,,0.00,Rainwise IP-100,2013-08-26 21:51:00,
2013-08-26 14:56:00,85.0,62.0,29.85,SSW,202,2.3,4.0,47,0.00,,,0.00,Rainwise IP-100,2013-08-26 21:56:00,
2013-08-26 15:01:00,84.8,63.0,29.85,SSW,202,2.8,5.0,48,0.00,,,0.00,Rainwise IP-100,2013-08-26 22:01:00,
2013-08-26 15:06:00,84.9,63.0,29.84,WSW,247,0.0,5.0,48,0.00,,,0.00,Rainwise IP-100,2013-08-26 22:06:00,
2013-08-26 15:11:00,85.3,63.0,29.84,SSW,202,5.8,5.8,48,0.00,,,0.00,Rainwise IP-100,2013-08-26 22:11:00,
2013-08-26 15:16:00,85.6,63.0,29.84,SSW,202,3.0,6.0,48,0.00,,,0.00,Rainwise IP-100,2013-08-26 22:16:00,
2013-08-26 15:21:00,85.9,64.0,29.84,SSW,202,3.0,5.0,48,0.00,,,0.00,Rainwise IP-100,2013-08-26 22:21:00,
2013-08-26 15:26:00,86.2,64.0,29.84,SSW,202,3.7,5.0,48,0.00,,,0.00,Rainwise IP-100,2013-08-26 22:26:00,
2013-08-26 15:31:00,86.4,64.0,29.84,SSW,202,3.7,7.0,47,0.00,,,0.00,Rainwise IP-100,2013-08-26 22:31:00,
2013-08-26 15:36:00,86.5,63.0,29.84,SSW,202,5.4,7.0,46,0.00,,,0.00,Rainwise IP-100,2013-08-26 22:36:00,
2013-08-26 15:41:00,86.6,63.0,29.84,SSW,202,3.0,6.0,46,0.00,,,0.00,Rainwise IP-100,2013-08-26 22:41:00,
2013-08-26 15:46:00,86.7,63.0,29.84,SW,225,4.2,7.0,45,0.00,,,0.00,Rainwise IP-100,2013-08-26 22:46:00,
2013-08-26 15:51:00,86.7,62.0,29.83,South,180,3.3,7.0,44,0.00,,,0.00,Rainwise IP-100,2013-08-26 22:51:00,
2013-08-26 15:56:00,86.7,61.0,29.84,SSW,202,2.1,7.0,43,0.00,,,0.00,Rainwise IP-100,2013-08-26 22:56:00,
2013-08-26 16:01:00,86.8,61.0,29.83,SSW,202,3.7,7.0,42,0.00,,,0.00,Rainwise IP-100,2013-08-26 23:01:00,
2013-08-26 16:06:00,87.4,61.0,29.83,SSW,202,4.2,7.0,41,0.00,,,0.00,Rainwise IP-100,2013-08-26 23:06:00,
2013-08-26 16:11:00,87.5,61.0,29.83,South,180,0.0,7.0,41,0.00,,,0.00,Rainwise IP-100,2013-08-26 23:11:00,
2013-08-26 16:16:00,87.2,61.0,29.83,SSW,202,4.0,6.0,42,0.00,,,0.00,Rainwise IP-100,2013-08-26 23:16:00,
2013-08-26 16:21:00,87.4,61.0,29.83,SSE,157,1.2,7.0,42,0.00,,,0.00,Rainwise IP-100,2013-08-26 23:21:00,
2013-08-26 16:26:00,88.3,61.0,29.83,SSW,202,0.0,6.0,41,0.00,,,0.00,Rainwise IP-100,2013-08-26 23:26:00,
2013-08-26 16:31:00,89.3,62.0,29.82,WNW,292,4.9,6.0,41,0.00,,,0.00,Rainwise IP-100,2013-08-26 23:31:00,
2013-08-26 16:36:00,89.5,62.0,29.83,WNW,292,2.6,8.0,41,0.00,,,0.00,Rainwise IP-100,2013-08-26 23:36:00,
2013-08-26 16:41:00,89.6,63.0,29.83,WNW,292,0.0,9.0,42,0.00,,,0.00,Rainwise IP-100,2013-08-26 23:41:00,
2013-08-26 16:46:00,90.2,64.0,29.82,WSW,247,0.0,6.0,42,0.00,,,0.00,Rainwise IP-100,2013-08-26 23:46:00,
2013-08-26 16:51:00,90.7,64.0,29.82,SSW,202,5.4,7.0,42,0.00,,,0.00,Rainwise IP-100,2013-08-26 23:51:00,
2013-08-26 16:56:00,90.8,64.0,29.82,SSW,202,4.9,7.0,42,0.00,,,0.00,Rainwise IP-100,2013-08-26 23:56:00,
2013-08-26 17:01:00,90.5,64.0,29.82,WSW,247,1.4,6.0,42,0.00,,,0.00,Rainwise IP-100,2013-08-27 00:01:00,
2013-08-26 17:06:00,90.4,65.0,29.82,NW,315,1.6,7.0,43,0.00,,,0.00,Rainwise IP-100,2013-08-27 00:06:00,
2013-08-26 17:11:00,90.0,65.0,29.82,South,180,1.6,8.0,44,0.00,,,0.00,Rainwise IP-100,2013-08-27 00:11:00,
2013-08-26 17:16:00,89.2,65.0,29.81,WNW,292,5.6,7.0,45,0.00,,,0.00,Rainwise IP-100,2013-08-27 00:16:00,
2013-08-26 17:21:00,89.1,65.0,29.82,WNW,292,0.0,6.0,45,0.00,,,0.00,Rainwise IP-100,2013-08-27 00:21:00,
2013-08-26 17:26:00,89.4,65.0,29.82,SSW,202,0.0,8.0,44,0.00,,,0.00,Rainwise IP-100,2013-08-27 00:26:00,
2013-08-26 17:31:00,89.4,65.0,29.82,SSW,202,0.0,5.0,44,0.00,,,0.00,Rainwise IP-100,2013-08-27 00:31:00,
2013-08-26 17:36:00,89.4,64.0,29.81,SSW,202,4.9,5.0,43,0.00,,,0.00,Rainwise IP-100,2013-08-27 00:36:00,
2013-08-26 17:41:00,89.0,63.0,29.81,SSW,202,4.2,7.0,42,0.00,,,0.00,Rainwise IP-100,2013-08-27 00:41:00,
2013-08-26 17:46:00,88.4,62.0,29.81,SSW,202,0.0,6.0,42,0.00,,,0.00,Rainwise IP-100,2013-08-27 00:46:00,
2013-08-26 17:51:00,88.4,62.0,29.81,SSW,202,5.1,9.0,42,0.00,,,0.00,Rainwise IP-100,2013-08-27 00:51:00,
2013-08-26 17:56:00,88.0,63.0,29.81,SSW,202,2.1,5.0,43,0.00,,,0.00,Rainwise IP-100,2013-08-27 00:56:00,
2013-08-26 18:01:00,87.0,62.0,29.81,WNW,292,3.0,7.0,44,0.00,,,0.00,Rainwise IP-100,2013-08-27 01:01:00,
2013-08-26 18:06:00,86.1,62.0,29.81,West,270,3.5,7.0,45,0.00,,,0.00,Rainwise IP-100,2013-08-27 01:06:00,
2013-08-26 18:11:00,85.1,61.0,29.81,WNW,292,0.0,8.0,45,0.00,,,0.00,Rainwise IP-100,2013-08-27 01:11:00,
2013-08-26 18:16:00,84.3,61.0,29.81,SSW,202,0.0,9.0,46,0.00,,,0.00,Rainwise IP-100,2013-08-27 01:16:00,
2013-08-26 18:21:00,83.8,61.0,29.81,WNW,292,1.4,5.0,46,0.00,,,0.00,Rainwise IP-100,2013-08-27 01:21:00,
2013-08-26 18:26:00,83.5,60.0,29.81,WNW,292,3.0,6.0,46,0.00,,,0.00,Rainwise IP-100,2013-08-27 01:26:00,
2013-08-26 18:31:00,83.2,60.0,29.82,NW,315,0.0,5.0,45,0.00,,,0.00,Rainwise IP-100,2013-08-27 01:31:00,
2013-08-26 18:36:00,83.0,59.0,29.81,NW,315,2.3,4.0,45,0.00,,,0.00,Rainwise IP-100,2013-08-27 01:36:00,
2013-08-26 18:41:00,83.0,60.0,29.82,NW,315,2.8,7.0,46,0.00,,,0.00,Rainwise IP-100,2013-08-27 01:41:00,
2013-08-26 18:46:00,82.7,60.0,29.81,NNW,337,6.5,7.0,47,0.00,,,0.00,Rainwise IP-100,2013-08-27 01:46:00,
2013-08-26 18:51:00,82.4,60.0,29.81,WNW,292,3.0,8.0,46,0.00,,,0.00,Rainwise IP-100,2013-08-27 01:51:00,
2013-08-26 18:56:00,82.1,57.0,29.82,NW,315,1.9,7.0,44,0.00,,,0.00,Rainwise IP-100,2013-08-27 01:56:00,
2013-08-26 19:01:00,81.8,57.0,29.82,WNW,292,4.2,7.0,43,0.00,,,0.00,Rainwise IP-100,2013-08-27 02:01:00,
2013-08-26 19:06:00,81.6,57.0,29.82,WNW,292,2.3,8.0,43,0.00,,,0.00,Rainwise IP-100,2013-08-27 02:06:00,
2013-08-26 19:11:00,81.5,57.0,29.82,WNW,292,2.3,5.0,43,0.00,,,0.00,Rainwise IP-100,2013-08-27 02:11:00,
2013-08-26 19:16:00,81.4,56.0,29.83,NW,315,1.2,3.0,43,0.00,,,0.00,Rainwise IP-100,2013-08-27 02:16:00,
2013-08-26 19:21:00,81.2,57.0,29.83,NW,315,0.0,7.0,44,0.00,,,0.00,Rainwise IP-100,2013-08-27 02:21:00,
2013-08-26 19:26:00,81.0,57.0,29.82,WSW,247,0.0,3.0,45,0.00,,,0.00,Rainwise IP-100,2013-08-27 02:26:00,
2013-08-26 19:31:00,80.7,57.0,29.83,WNW,292,2.3,2.3,45,0.00,,,0.00,Rainwise IP-100,2013-08-27 02:31:00,
2013-08-26 19:36:00,80.5,57.0,29.83,WNW,292,2.8,3.0,45,0.00,,,0.00,Rainwise IP-100,2013-08-27 02:36:00,
2013-08-26 19:41:00,80.3,57.0,29.83,WNW,292,2.8,3.0,45,0.00,,,0.00,Rainwise IP-100,2013-08-27 02:41:00,
2013-08-26 19:46:00,80.0,56.0,29.83,WNW,292,1.6,4.0,45,0.00,,,0.00,Rainwise IP-100,2013-08-27 02:46:00,
2013-08-26 19:51:00,79.5,57.0,29.83,WNW,292,1.4,3.0,46,0.00,,,0.00,Rainwise IP-100,2013-08-27 02:51:00,
2013-08-26 19:56:00,78.9,57.0,29.83,WNW,292,0.0,1.0,47,0.00,,,0.00,Rainwise IP-100,2013-08-27 02:56:00,
2013-08-26 20:01:00,78.5,57.0,29.84,WNW,292,0.0,0.0,47,0.00,,,0.00,Rainwise IP-100,2013-08-27 03:01:00,
2013-08-26 20:06:00,78.0,57.0,29.84,WNW,292,0.0,0.0,48,0.00,,,0.00,Rainwise IP-100,2013-08-27 03:06:00,
2013-08-26 20:11:00,77.5,57.0,29.84,WNW,292,0.0,0.0,50,0.00,,,0.00,Rainwise IP-100,2013-08-27 03:11:00,
2013-08-26 20:16:00,77.0,57.0,29.84,WNW,292,0.0,0.0,51,0.00,,,0.00,Rainwise IP-100,2013-08-27 03:16:00,
2013-08-26 20:21:00,76.6,57.0,29.84,WNW,292,0.0,1.0,51,0.00,,,0.00,Rainwise IP-100,2013-08-27 03:21:00,
2013-08-26 20:26:00,76.2,57.0,29.84,WNW,292,0.0,0.0,52,0.00,,,0.00,Rainwise IP-100,2013-08-27 03:26:00,
2013-08-26 20:31:00,76.0,57.0,29.84,WNW,292,0.0,0.0,52,0.00,,,0.00,Rainwise IP-100,2013-08-27 03:31:00,
2013-08-26 20:36:00,76.1,57.0,29.84,WNW,292,0.0,1.0,52,0.00,,,0.00,Rainwise IP-100,2013-08-27 03:36:00,
2013-08-26 20:41:00,76.1,57.0,29.85,WNW,292,0.0,0.0,53,0.00,,,0.00,Rainwise IP-100,2013-08-27 03:41:00,
2013-08-26 20:46:00,75.8,58.0,29.84,WNW,292,0.0,1.0,55,0.00,,,0.00,Rainwise IP-100,2013-08-27 03:46:00,
2013-08-26 20:51:00,75.6,58.0,29.85,WNW,292,0.0,0.0,55,0.00,,,0.00,Rainwise IP-100,2013-08-27 03:51:00,
2013-08-26 20:56:00,75.7,58.0,29.85,WNW,292,0.0,0.0,55,0.00,,,0.00,Rainwise IP-100,2013-08-27 03:56:00,
2013-08-26 21:01:00,75.8,58.0,29.84,NNW,337,2.8,2.8,55,0.00,,,0.00,Rainwise IP-100,2013-08-27 04:01:00,
2013-08-26 21:06:00,76.1,59.0,29.85,NNW,337,1.4,4.0,55,0.00,,,0.00,Rainwise IP-100,2013-08-27 04:06:00,
2013-08-26 21:11:00,76.7,59.0,29.84,NNW,337,1.4,3.0,54,0.00,,,0.00,Rainwise IP-100,2013-08-27 04:11:00,
2013-08-26 21:16:00,77.0,59.0,29.84,NNW,337,0.0,1.0,54,0.00,,,0.00,Rainwise IP-100,2013-08-27 04:16:00,
2013-08-26 21:21:00,76.7,59.0,29.85,NNW,337,0.0,0.0,55,0.00,,,0.00,Rainwise IP-100,2013-08-27 04:21:00,
2013-08-26 21:26:00,76.4,60.0,29.85,NNW,337,0.0,0.0,56,0.00,,,0.00,Rainwise IP-100,2013-08-27 04:26:00,
2013-08-26 21:31:00,75.9,59.0,29.85,NNW,337,0.0,0.0,57,0.00,,,0.00,Rainwise IP-100,2013-08-27 04:31:00,
2013-08-26 21:36:00,75.4,59.0,29.85,NNW,337,0.0,0.0,57,0.00,,,0.00,Rainwise IP-100,2013-08-27 04:36:00,
2013-08-26 21:41:00,75.2,59.0,29.85,NNW,337,0.0,0.0,58,0.00,,,0.00,Rainwise IP-100,2013-08-27 04:41:00,
2013-08-26 21:46:00,75.0,59.0,29.85,NNW,337,0.0,0.0,58,0.00,,,0.00,Rainwise IP-100,2013-08-27 04:46:00,
2013-08-26 21:51:00,74.8,59.0,29.85,NNW,337,0.0,0.0,59,0.00,,,0.00,Rainwise IP-100,2013-08-27 04:51:00,
2013-08-26 21:56:00,74.8,59.0,29.86,NNW,337,0.0,0.0,59,0.00,,,0.00,Rainwise IP-100,2013-08-27 04:56:00,
2013-08-26 22:01:00,74.8,59.0,29.86,NNW,337,0.0,0.0,59,0.00,,,0.00,Rainwise IP-100,2013-08-27 05:01:00,
2013-08-26 22:06:00,74.7,59.0,29.86,NNW,337,0.0,0.0,59,0.00,,,0.00,Rainwise IP-100,2013-08-27 05:06:00,
2013-08-26 22:11:00,74.6,60.0,29.86,NNW,337,0.0,0.0,60,0.00,,,0.00,Rainwise IP-100,2013-08-27 05:11:00,
2013-08-26 22:16:00,74.5,60.0,29.86,NNW,337,0.0,0.0,61,0.00,,,0.00,Rainwise IP-100,2013-08-27 05:16:00,
2013-08-26 22:21:00,74.4,60.0,29.86,NNW,337,0.0,0.0,62,0.00,,,0.00,Rainwise IP-100,2013-08-27 05:21:00,
2013-08-26 22:26:00,74.2,61.0,29.86,NNW,337,0.0,0.0,63,0.00,,,0.00,Rainwise IP-100,2013-08-27 05:26:00,
2013-08-26 22:31:00,74.0,61.0,29.86,NNW,337,0.0,0.0,63,0.00,,,0.00,Rainwise IP-100,2013-08-27 05:31:00,
2013-08-26 22:36:00,73.6,61.0,29.86,NNW,337,0.0,0.0,64,0.00,,,0.00,Rainwise IP-100,2013-08-27 05:36:00,
2013-08-26 22:41:00,73.4,61.0,29.86,NNW,337,0.0,0.0,65,0.00,,,0.00,Rainwise IP-100,2013-08-27 05:41:00,
2013-08-26 22:46:00,73.3,61.0,29.86,NNW,337,0.0,0.0,65,0.00,,,0.00,Rainwise IP-100,2013-08-27 05:46:00,
2013-08-26 22:51:00,73.3,61.0,29.86,NNW,337,0.0,0.0,66,0.00,,,0.00,Rainwise IP-100,2013-08-27 05:51:00,
2013-08-26 22:56:00,73.2,61.0,29.86,WSW,247,1.6,2.0,66,0.00,,,0.00,Rainwise IP-100,2013-08-27 05:56:00,
2013-08-26 23:01:00,73.0,61.0,29.86,WSW,247,0.0,2.0,66,0.00,,,0.00,Rainwise IP-100,2013-08-27 06:01:00,
2013-08-26 23:06:00,72.9,60.0,29.86,SW,225,1.2,2.0,65,0.00,,,0.00,Rainwise IP-100,2013-08-27 06:06:00,
2013-08-26 23:11:00,72.8,60.0,29.86,South,180,1.2,3.0,64,0.00,,,0.00,Rainwise IP-100,2013-08-27 06:11:00,
2013-08-26 23:16:00,72.7,60.0,29.86,SSW,202,0.0,4.0,64,0.00,,,0.00,Rainwise IP-100,2013-08-27 06:16:00,
2013-08-26 23:21:00,72.4,60.0,29.86,SSW,202,2.3,2.3,65,0.00,,,0.00,Rainwise IP-100,2013-08-27 06:21:00,
2013-08-26 23:26:00,72.2,60.0,29.86,SSW,202,2.1,3.0,66,0.00,,,0.00,Rainwise IP-100,2013-08-27 06:26:00,
2013-08-26 23:31:00,71.8,60.0,29.86,South,180,1.6,3.0,67,0.00,,,0.00,Rainwise IP-100,2013-08-27 06:31:00,
2013-08-26 23:36:00,71.5,60.0,29.86,South,180,0.0,2.0,68,0.00,,,0.00,Rainwise IP-100,2013-08-27 06:36:00,
2013-08-26 23:41:00,71.3,60.0,29.85,SSW,202,1.9,2.0,69,0.00,,,0.00,Rainwise IP-100,2013-08-27 06:41:00,
2013-08-26 23:46:00,71.0,61.0,29.85,SSW,202,0.0,4.0,71,0.00,,,0.00,Rainwise IP-100,2013-08-27 06:46:00,
2013-08-26 23:51:00,70.6,61.0,29.86,South,180,4.2,4.2,72,0.00,,,0.00,Rainwise IP-100,2013-08-27 06:51:00,
2013-08-26 23:56:00,70.0,61.0,29.86,SSE,157,2.1,4.0,74,0.00,,,0.00,Rainwise IP-100,2013-08-27 06:56:00,